createdAt,value
2023-03-05T00:01:18.092Z,36.28
2023-03-05T00:03:46.001Z,31.75
2023-03-05T00:06:13.640Z,34.00
2023-03-05T00:08:42.333Z,34.88
2023-03-05T00:11:11.974Z,31.15
2023-03-05T00:13:40.029Z,28.85
2023-03-05T00:16:09.800Z,31.13
2023-03-05T00:18:39.616Z,33.85
2023-03-05T00:21:18.760Z,36.17
2023-03-05T00:23:46.293Z,38.67
2023-03-05T00:26:13.819Z,33.17
2023-03-05T00:28:41.384Z,33.35
2023-03-05T00:31:08.927Z,36.50
2023-03-05T00:33:37.808Z,38.08
2023-03-05T00:36:07.645Z,41.42
2023-03-05T00:38:35.580Z,37.53
2023-03-05T00:41:03.503Z,39.38
2023-03-05T00:43:31.309Z,36.83
2023-03-05T00:45:58.778Z,36.35
2023-03-05T00:48:26.570Z,37.88
2023-03-05T00:50:55.483Z,34.05
2023-03-05T00:53:24.053Z,39.70
2023-03-05T00:55:51.568Z,38.35
2023-03-05T00:58:19.259Z,42.85
2023-03-05T01:00:46.779Z,36.22
2023-03-05T01:03:14.305Z,37.75
2023-03-05T01:05:41.932Z,32.55
2023-03-05T01:08:11.000Z,34.83
2023-03-05T01:10:38.603Z,36.10
2023-03-05T01:13:06.113Z,33.83
2023-03-05T01:15:33.659Z,30.92
2023-03-05T01:18:01.254Z,33.50
2023-03-05T01:20:28.998Z,36.33
2023-03-05T01:22:58.915Z,34.17
2023-03-05T01:25:27.777Z,34.00
2023-03-05T01:27:55.372Z,33.17
2023-03-05T01:30:23.084Z,34.25
2023-03-05T01:32:50.657Z,32.30
2023-03-05T01:35:21.535Z,33.92
2023-03-05T01:37:49.307Z,30.02
2023-03-05T01:40:20.282Z,34.22
2023-03-05T01:42:56.258Z,30.40
2023-03-05T01:45:24.205Z,33.10
2023-03-05T01:47:51.813Z,38.50
2023-03-05T01:50:23.869Z,39.60
2023-03-05T01:52:56.013Z,38.78
2023-03-05T01:55:25.470Z,32.95
2023-03-05T01:57:56.823Z,30.20
2023-03-05T02:00:30.349Z,39.53
2023-03-05T02:03:01.612Z,32.00
2023-03-05T02:05:31.639Z,34.58
2023-03-05T02:08:00.748Z,38.17
2023-03-05T02:10:30.780Z,36.90
2023-03-05T02:13:02.905Z,39.72
2023-03-05T02:15:31.160Z,39.72
2023-03-05T02:17:58.744Z,32.20
2023-03-05T02:20:28.422Z,30.98
2023-03-05T02:22:57.366Z,33.10
2023-03-05T02:25:27.510Z,36.05
2023-03-05T02:28:00.949Z,36.47
2023-03-05T02:30:28.954Z,37.53
2023-03-05T02:32:56.554Z,34.53
2023-03-05T02:35:24.194Z,35.13
2023-03-05T02:37:52.000Z,35.40
2023-03-05T02:40:21.183Z,35.08
2023-03-05T02:42:49.075Z,39.38
2023-03-05T02:45:16.742Z,38.00
2023-03-05T02:47:44.342Z,35.40
2023-03-05T02:50:13.369Z,37.65
2023-03-05T02:52:41.108Z,36.53
2023-03-05T02:55:09.578Z,39.65
2023-03-05T02:57:38.418Z,31.23
2023-03-05T03:00:09.360Z,31.85
2023-03-05T03:02:36.977Z,39.20
2023-03-05T03:05:04.702Z,38.38
2023-03-05T03:07:34.231Z,41.80
2023-03-05T03:10:01.815Z,36.75
2023-03-05T03:12:29.342Z,34.75
2023-03-05T03:14:58.204Z,35.38
2023-03-05T03:17:25.723Z,33.83
2023-03-05T03:19:53.204Z,34.45
2023-03-05T03:22:20.747Z,33.10
2023-03-05T03:24:48.289Z,34.30
2023-03-05T03:27:15.875Z,36.17
2023-03-05T03:29:43.358Z,31.73
2023-03-05T03:32:12.407Z,36.95
2023-03-05T03:34:39.945Z,35.15
2023-03-05T03:37:08.454Z,36.38
2023-03-05T03:39:36.002Z,35.63
2023-03-05T03:42:03.530Z,36.80
2023-03-05T03:44:31.032Z,34.15
2023-03-05T03:46:58.649Z,35.28
2023-03-05T03:49:27.810Z,37.47
2023-03-05T03:51:55.912Z,33.95
2023-03-05T03:54:23.805Z,39.22
2023-03-05T03:56:51.471Z,38.38
2023-03-05T03:59:19.039Z,34.78
2023-03-05T04:01:47.175Z,34.33
2023-03-05T04:04:14.860Z,33.60
2023-03-05T04:06:45.084Z,36.50
2023-03-05T04:09:12.638Z,34.25
2023-03-05T04:11:40.690Z,34.28
2023-03-05T04:14:08.214Z,34.95
2023-03-05T04:16:35.710Z,33.17
2023-03-05T04:19:03.435Z,36.83
2023-03-05T04:21:30.993Z,39.75
2023-03-05T04:23:59.876Z,35.78
2023-03-05T04:26:27.423Z,35.10
2023-03-05T04:28:54.930Z,36.30
2023-03-05T04:31:23.794Z,39.75
2023-03-05T04:33:51.431Z,35.15
2023-03-05T04:36:18.947Z,32.88
2023-03-05T04:38:46.470Z,30.48
2023-03-05T04:41:15.356Z,32.92
2023-03-05T04:43:42.860Z,35.72
2023-03-05T04:46:10.394Z,36.33
2023-03-05T04:48:37.969Z,37.78
2023-03-05T04:51:06.087Z,34.22
2023-03-05T04:53:33.745Z,33.97
2023-03-05T04:56:02.199Z,35.17
2023-03-05T04:58:31.199Z,36.50
2023-03-05T05:01:02.356Z,34.38
2023-03-05T05:03:30.086Z,37.85
2023-03-05T05:05:58.453Z,32.10
2023-03-05T05:08:26.376Z,32.58
2023-03-05T05:10:58.361Z,35.75
2023-03-05T05:13:26.028Z,35.20
2023-03-05T05:15:55.019Z,37.75
2023-03-05T05:18:22.714Z,36.58
2023-03-05T05:20:50.602Z,35.63
2023-03-05T05:23:18.951Z,32.60
2023-03-05T05:25:46.479Z,32.95
2023-03-05T05:28:14.096Z,30.98
2023-03-05T05:30:41.630Z,31.80
2023-03-05T05:33:10.501Z,36.78
2023-03-05T05:35:40.282Z,33.00
2023-03-05T05:38:07.858Z,34.05
2023-03-05T05:40:35.439Z,32.03
2023-03-05T05:43:03.247Z,34.00
2023-03-05T05:45:30.857Z,33.22
2023-03-05T05:47:58.424Z,35.28
2023-03-05T05:50:27.685Z,34.17
2023-03-05T05:52:55.196Z,38.80
2023-03-05T05:55:22.827Z,31.38
2023-03-05T05:57:50.344Z,33.67
2023-03-05T06:00:18.597Z,33.00
2023-03-05T06:02:46.223Z,35.13
2023-03-05T06:05:15.901Z,38.67
2023-03-05T06:07:45.315Z,37.50
2023-03-05T06:10:13.085Z,36.70
2023-03-05T06:12:40.791Z,35.42
2023-03-05T06:15:09.297Z,38.42
2023-03-05T06:17:36.851Z,36.70
2023-03-05T06:20:05.209Z,37.22
2023-03-05T06:22:32.743Z,37.20
2023-03-05T06:25:01.864Z,41.80
2023-03-05T06:27:29.355Z,33.83
2023-03-05T06:29:57.177Z,32.75
2023-03-05T06:32:25.138Z,35.63
2023-03-05T06:34:53.127Z,36.13
2023-03-05T06:37:20.835Z,34.35
2023-03-05T06:39:48.381Z,37.53
2023-03-05T06:42:19.379Z,35.80
2023-03-05T06:44:48.395Z,33.97
2023-03-05T06:47:16.085Z,37.50
2023-03-05T06:49:43.566Z,37.42
2023-03-05T06:52:12.707Z,34.72
2023-03-05T06:54:40.283Z,35.72
2023-03-05T06:57:07.777Z,37.20
2023-03-05T06:59:36.609Z,36.63
2023-03-05T07:02:04.166Z,38.75
2023-03-05T07:04:31.736Z,29.75
2023-03-05T07:07:00.465Z,34.22
2023-03-05T07:09:27.988Z,41.92
2023-03-05T07:11:55.528Z,39.65
2023-03-05T07:14:23.449Z,35.20
2023-03-05T07:16:52.352Z,37.10
2023-03-05T07:19:19.968Z,38.20
2023-03-05T07:21:47.536Z,35.75
2023-03-05T07:24:15.239Z,35.33
2023-03-05T07:26:42.767Z,37.38
2023-03-05T07:29:10.483Z,36.03
2023-03-05T07:31:38.043Z,36.88
2023-03-05T07:34:07.057Z,37.30
2023-03-05T07:36:35.009Z,39.30
2023-03-05T07:39:04.605Z,34.35
2023-03-05T07:41:32.154Z,38.28
2023-03-05T07:43:59.664Z,42.08
2023-03-05T07:46:31.064Z,39.20
2023-03-05T07:49:00.144Z,36.15
2023-03-05T07:51:29.771Z,38.85
2023-03-05T07:53:59.384Z,37.88
2023-03-05T07:56:31.715Z,33.15
2023-03-05T07:58:59.655Z,41.88
2023-03-05T08:01:27.199Z,39.35
2023-03-05T08:03:54.739Z,32.80
2023-03-05T08:06:22.533Z,35.47
2023-03-05T08:08:51.706Z,39.92
2023-03-05T08:11:19.327Z,42.10
2023-03-05T08:13:46.866Z,36.63
2023-03-05T08:16:16.450Z,41.10
2023-03-05T08:18:44.225Z,41.58
2023-03-05T08:21:17.593Z,36.25
2023-03-05T08:23:45.163Z,40.65
2023-03-05T08:26:16.869Z,34.88
2023-03-05T08:28:44.881Z,46.83
2023-03-05T08:31:14.088Z,33.70
2023-03-05T08:33:42.107Z,35.80
2023-03-05T08:36:10.334Z,35.15
2023-03-05T08:38:37.971Z,30.63
2023-03-05T08:41:06.086Z,32.13
2023-03-05T08:43:35.090Z,34.47
2023-03-05T08:46:02.896Z,33.45
2023-03-05T08:48:31.668Z,35.70
2023-03-05T08:50:59.808Z,37.97
2023-03-05T08:53:27.365Z,32.53
2023-03-05T08:55:56.296Z,36.50
2023-03-05T08:58:24.152Z,36.33
2023-03-05T09:00:53.214Z,33.15
2023-03-05T09:03:20.897Z,31.15
2023-03-05T09:05:48.550Z,34.28
2023-03-05T09:08:16.033Z,36.17
2023-03-05T09:10:47.518Z,33.00
2023-03-05T09:13:15.033Z,32.63
2023-03-05T09:15:42.634Z,34.70
2023-03-05T09:18:11.734Z,33.25
2023-03-05T09:20:39.356Z,36.40
2023-03-05T09:23:06.859Z,31.13
2023-03-05T09:25:34.373Z,36.50
2023-03-05T09:28:01.864Z,36.22
2023-03-05T09:30:29.355Z,34.00
2023-03-05T09:32:56.868Z,35.08
2023-03-05T09:35:25.742Z,31.52
2023-03-05T09:37:53.523Z,34.22
2023-03-05T09:40:22.524Z,31.25
2023-03-05T09:43:02.293Z,27.08
2023-03-05T09:45:33.917Z,32.33
2023-03-05T09:48:14.087Z,28.85
2023-03-05T09:50:45.361Z,31.05
2023-03-05T09:53:36.172Z,32.13
2023-03-05T09:56:10.380Z,33.25
2023-03-05T09:58:40.813Z,34.20
2023-03-05T10:01:12.341Z,30.88
2023-03-05T10:03:50.734Z,32.53
2023-03-05T10:06:24.501Z,31.60
2023-03-05T10:08:58.796Z,32.95
2023-03-05T10:11:37.433Z,31.33
2023-03-05T10:14:05.723Z,31.15
2023-03-05T10:16:57.935Z,30.63
2023-03-05T10:19:48.928Z,30.02
2023-03-05T10:22:22.653Z,31.55
2023-03-05T10:25:03.925Z,30.80
2023-03-05T10:27:41.403Z,30.00
2023-03-05T10:30:24.720Z,31.33
2023-03-05T10:33:00.827Z,34.25
2023-03-05T10:35:53.564Z,29.00
2023-03-05T10:38:48.112Z,30.83
2023-03-05T10:41:26.396Z,31.05
2023-03-05T10:44:02.498Z,27.30
2023-03-05T10:46:36.102Z,28.50
2023-03-05T10:49:08.614Z,32.72
2023-03-05T10:51:42.169Z,28.65
2023-03-05T10:54:20.876Z,29.40
2023-03-05T10:56:48.804Z,30.05
2023-03-05T10:59:16.409Z,27.52
2023-03-05T11:04:37.037Z,31.23
2023-03-05T11:07:09.469Z,30.33
2023-03-05T11:09:38.302Z,27.58
2023-03-05T11:12:13.029Z,37.05
2023-03-05T11:14:42.574Z,27.83
2023-03-05T11:17:27.921Z,29.48
2023-03-05T11:19:56.340Z,30.83
2023-03-05T11:22:25.151Z,29.77
2023-03-05T11:25:15.596Z,34.08
2023-03-05T11:27:53.684Z,30.25
2023-03-05T11:30:28.945Z,25.88
2023-03-05T11:33:10.576Z,26.70
2023-03-05T11:35:42.041Z,25.83
2023-03-05T11:38:18.110Z,30.90
2023-03-05T11:40:48.426Z,26.88
2023-03-05T11:43:19.684Z,23.92
2023-03-05T11:45:48.789Z,23.55
2023-03-05T11:48:22.565Z,30.50
2023-03-05T11:50:54.092Z,22.30
2023-03-05T11:53:25.104Z,29.17
2023-03-05T11:55:59.663Z,19.77
2023-03-05T11:58:32.322Z,22.35
2023-03-05T12:01:01.147Z,24.27
2023-03-05T12:03:32.903Z,25.25
2023-03-05T12:06:10.267Z,24.83
2023-03-05T12:08:41.945Z,22.80
2023-03-05T12:11:17.900Z,25.90
2023-03-05T12:13:50.020Z,25.42
2023-03-05T12:16:26.983Z,23.20
2023-03-05T12:19:11.516Z,26.70
2023-03-05T12:21:41.403Z,25.75
2023-03-05T12:24:37.626Z,22.42
2023-03-05T12:27:14.667Z,23.77
2023-03-05T12:29:45.741Z,21.58
2023-03-05T12:33:01.943Z,20.33
2023-03-05T12:35:36.888Z,24.98
2023-03-05T12:38:27.929Z,23.33
2023-03-05T12:41:34.311Z,24.52
2023-03-05T12:44:24.357Z,24.38
2023-03-05T12:47:23.398Z,22.00
2023-03-05T12:49:51.579Z,25.92
2023-03-05T12:52:25.185Z,21.77
2023-03-05T12:55:15.459Z,21.58
2023-03-05T12:57:45.041Z,22.35
2023-03-05T13:00:21.678Z,19.25
2023-03-05T13:02:55.986Z,19.55
2023-03-05T13:05:29.284Z,19.67
2023-03-05T13:08:15.857Z,31.45
2023-03-05T13:10:51.320Z,23.08
2023-03-05T13:13:23.062Z,22.13
2023-03-05T13:15:57.072Z,24.23
2023-03-05T13:18:27.849Z,20.85
2023-03-05T13:21:04.970Z,21.73
2023-03-05T13:23:34.754Z,22.55
2023-03-05T13:26:11.866Z,22.08
2023-03-05T13:28:42.796Z,23.15
2023-03-05T13:31:18.709Z,20.35
2023-03-05T13:33:54.599Z,20.35
2023-03-05T13:36:24.368Z,21.50
2023-03-05T13:38:57.819Z,20.75
2023-03-05T13:41:32.545Z,21.90
2023-03-05T13:44:05.152Z,21.95
2023-03-05T13:46:42.357Z,21.10
2023-03-05T13:49:25.569Z,25.85
2023-03-05T13:54:30.333Z,18.95
2023-03-05T13:57:02.086Z,25.55
2023-03-05T13:59:31.829Z,21.10
2023-03-05T14:02:03.217Z,22.83
2023-03-05T14:04:33.657Z,25.77
2023-03-05T14:07:04.981Z,26.38
2023-03-05T14:09:48.591Z,21.88
2023-03-05T14:12:28.734Z,23.10
2023-03-05T14:14:59.839Z,25.23
2023-03-05T14:17:40.190Z,20.15
2023-03-05T14:20:19.814Z,23.60
2023-03-05T14:22:54.043Z,23.05
2023-03-05T14:25:36.790Z,20.25
2023-03-05T14:28:12.525Z,22.15
2023-03-05T14:30:51.741Z,26.58
2023-03-05T14:33:26.303Z,23.95
2023-03-05T14:35:57.940Z,22.40
2023-03-05T14:38:29.737Z,22.90
2023-03-05T14:40:58.965Z,28.10
2023-03-05T14:43:28.673Z,23.17
2023-03-05T14:46:00.272Z,23.92
2023-03-05T14:48:48.256Z,25.70
2023-03-05T14:51:17.581Z,23.17
2023-03-05T14:53:50.347Z,23.00
2023-03-05T14:59:15.167Z,25.27
2023-03-05T15:01:55.529Z,21.90
2023-03-05T15:07:21.614Z,19.15
2023-03-05T15:09:57.836Z,23.55
2023-03-05T15:12:32.032Z,22.98
2023-03-05T15:15:03.833Z,21.13
2023-03-05T15:17:37.327Z,18.00
2023-03-05T15:20:10.432Z,22.38
2023-03-05T15:22:39.872Z,20.13
2023-03-05T15:25:10.877Z,20.33
2023-03-05T15:27:50.797Z,20.50
2023-03-05T15:30:33.119Z,19.10
2023-03-05T15:33:14.098Z,21.58
2023-03-05T15:35:54.496Z,19.98
2023-03-05T15:38:32.030Z,18.27
2023-03-05T15:41:11.843Z,20.33
2023-03-05T15:43:47.087Z,22.25
2023-03-05T15:46:15.326Z,20.45
2023-03-05T15:48:50.537Z,17.85
2023-03-05T15:51:24.374Z,21.27
2023-03-05T15:53:56.204Z,20.75
2023-03-05T15:56:28.640Z,19.15
2023-03-05T15:59:14.326Z,19.52
2023-03-05T16:01:51.322Z,16.65
2023-03-05T16:04:19.713Z,21.88
2023-03-05T16:06:51.168Z,14.82
2023-03-05T16:09:22.016Z,23.30
2023-03-05T16:11:51.556Z,15.80
2023-03-05T16:14:23.409Z,21.23
2023-03-05T16:16:51.897Z,17.15
2023-03-05T16:19:20.849Z,17.17
2023-03-05T16:21:50.064Z,16.70
2023-03-05T16:24:17.959Z,19.30
2023-03-05T16:26:45.509Z,16.55
2023-03-05T16:29:14.604Z,19.48
2023-03-05T16:31:43.201Z,15.57
2023-03-05T16:34:14.057Z,18.55
2023-03-05T16:36:47.041Z,15.68
2023-03-05T16:39:16.525Z,21.35
2023-03-05T16:41:44.329Z,17.05
2023-03-05T16:44:12.552Z,20.45
2023-03-05T16:46:41.880Z,17.67
2023-03-05T16:49:10.044Z,19.95
2023-03-05T16:51:37.723Z,19.20
2023-03-05T16:54:05.479Z,18.98
2023-03-05T16:56:34.792Z,20.25
2023-03-05T16:59:02.766Z,19.20
2023-03-05T17:01:31.356Z,23.25
2023-03-05T17:04:00.073Z,20.30
2023-03-05T17:06:30.441Z,22.65
2023-03-05T17:08:58.229Z,25.52
2023-03-05T17:11:26.011Z,19.85
2023-03-05T17:13:55.206Z,21.67
2023-03-05T17:16:23.229Z,16.92
2023-03-05T17:18:50.883Z,17.58
2023-03-05T17:21:18.454Z,19.48
2023-03-05T17:23:46.002Z,20.88
2023-03-05T17:26:15.453Z,22.35
2023-03-05T17:28:43.424Z,25.95
2023-03-05T17:31:13.135Z,19.80
2023-03-05T17:33:42.556Z,21.55
2023-03-05T17:36:15.485Z,23.63
2023-03-05T17:38:43.272Z,20.80
2023-03-05T17:41:11.155Z,21.40
2023-03-05T17:43:38.829Z,22.17
2023-03-05T17:46:07.099Z,18.83
2023-03-05T17:48:38.805Z,20.05
2023-03-05T17:51:06.922Z,20.80
2023-03-05T17:53:35.119Z,23.58
2023-03-05T17:56:03.203Z,21.52
2023-03-05T17:58:31.157Z,17.38
2023-03-05T18:01:00.597Z,20.55
2023-03-05T18:03:28.848Z,19.90
2023-03-05T18:05:58.614Z,20.88
2023-03-05T18:08:27.127Z,19.13
2023-03-05T18:11:15.808Z,17.17
2023-03-05T18:13:44.454Z,15.77
2023-03-05T18:16:14.423Z,22.60
2023-03-05T18:18:44.462Z,17.88
2023-03-05T18:21:14.502Z,18.55
2023-03-05T18:23:43.031Z,15.40
2023-03-05T18:26:11.058Z,17.85
2023-03-05T18:28:39.869Z,21.08
2023-03-05T18:31:09.646Z,17.80
2023-03-05T18:33:41.360Z,18.52
2023-03-05T18:36:17.306Z,20.08
2023-03-05T18:38:46.231Z,15.00
2023-03-05T18:41:20.669Z,20.42
2023-03-05T18:43:48.589Z,15.55
2023-03-05T18:46:16.901Z,19.35
2023-03-05T18:48:45.202Z,18.17
2023-03-05T18:51:17.104Z,17.60
2023-03-05T18:53:44.835Z,17.13
2023-03-05T18:56:14.076Z,17.80
2023-03-05T18:58:42.148Z,19.70
2023-03-05T19:01:10.075Z,20.88
2023-03-05T19:03:37.942Z,20.77
2023-03-05T19:06:07.417Z,20.27
2023-03-05T19:08:36.825Z,18.05
2023-03-05T19:11:05.104Z,18.17
2023-03-05T19:13:39.529Z,19.75
2023-03-05T19:16:08.861Z,21.55
2023-03-05T19:18:43.068Z,19.45
2023-03-05T19:21:11.305Z,22.10
2023-03-05T19:23:40.210Z,22.60
2023-03-05T19:26:08.265Z,23.25
2023-03-05T19:28:35.783Z,21.25
2023-03-05T19:31:03.382Z,20.95
2023-03-05T19:33:30.957Z,19.80
2023-03-05T19:35:59.178Z,19.40
2023-03-05T19:38:26.706Z,22.20
2023-03-05T19:40:55.554Z,22.67
2023-03-05T19:43:23.093Z,23.45
2023-03-05T19:45:50.589Z,25.77
2023-03-05T19:48:18.137Z,20.80
2023-03-05T19:50:45.629Z,21.70
2023-03-05T19:53:13.140Z,22.77
2023-03-05T19:55:40.864Z,27.73
2023-03-05T19:58:09.806Z,21.02
2023-03-05T20:00:37.738Z,22.23
2023-03-05T20:03:05.302Z,22.40
2023-03-05T20:05:32.939Z,22.33
2023-03-05T20:08:00.481Z,23.35
2023-03-05T20:10:28.169Z,23.42
2023-03-05T20:12:57.733Z,22.67
2023-03-05T20:15:29.237Z,21.42
2023-03-05T20:17:57.302Z,22.65
2023-03-05T20:20:25.175Z,20.13
2023-03-05T20:22:54.003Z,19.10
2023-03-05T20:25:24.768Z,22.98
2023-03-05T20:27:53.014Z,21.17
2023-03-05T20:30:20.785Z,22.88
2023-03-05T20:32:49.705Z,19.33
2023-03-05T20:35:19.280Z,20.30
2023-03-05T20:38:00.115Z,22.45
2023-03-05T20:40:27.922Z,23.60
2023-03-05T20:42:55.458Z,19.17
2023-03-05T20:45:22.965Z,23.98
2023-03-05T20:47:51.970Z,21.33
2023-03-05T20:50:19.775Z,21.05
2023-03-05T20:52:47.523Z,22.23
2023-03-05T20:55:15.043Z,18.33
2023-03-05T20:57:44.191Z,18.67
2023-03-05T21:00:13.657Z,18.27
2023-03-05T21:02:41.264Z,17.83
2023-03-05T21:05:10.989Z,18.77
2023-03-05T21:07:38.698Z,19.25
2023-03-05T21:10:07.325Z,15.93
2023-03-05T21:12:34.915Z,18.98
2023-03-05T21:15:02.454Z,17.75
2023-03-05T21:17:30.008Z,15.90
2023-03-05T21:19:57.541Z,17.25
2023-03-05T21:22:26.364Z,16.90
2023-03-05T21:25:02.121Z,17.48
2023-03-05T21:27:29.652Z,14.70
2023-03-05T21:29:57.151Z,15.27
2023-03-05T21:32:24.721Z,17.45
2023-03-05T21:34:52.245Z,17.02
2023-03-05T21:37:19.709Z,17.10
2023-03-05T21:39:48.570Z,17.98
2023-03-05T21:42:16.129Z,18.40
2023-03-05T21:44:43.631Z,21.20
2023-03-05T21:47:11.153Z,16.02
2023-03-05T21:49:38.760Z,19.05
2023-03-05T21:52:09.308Z,19.65
2023-03-05T21:54:37.269Z,17.65
2023-03-05T21:57:07.086Z,16.95
2023-03-05T21:59:34.968Z,18.33
2023-03-05T22:02:02.781Z,15.77
2023-03-05T22:04:30.335Z,21.10
2023-03-05T22:06:57.932Z,16.10
2023-03-05T22:09:25.452Z,20.10
2023-03-05T22:11:52.980Z,16.23
2023-03-05T22:14:21.940Z,18.20
2023-03-05T22:16:53.078Z,17.55
2023-03-05T22:19:21.121Z,19.70
2023-03-05T22:21:49.264Z,18.25
2023-03-05T22:24:16.767Z,19.42
2023-03-05T22:26:44.292Z,17.98
2023-03-05T22:29:12.967Z,18.08
2023-03-05T22:31:41.847Z,18.83
2023-03-05T22:34:09.353Z,19.55
2023-03-05T22:36:36.900Z,16.73
2023-03-05T22:39:05.152Z,21.90
2023-03-05T22:41:32.815Z,14.82
2023-03-05T22:44:00.379Z,16.50
2023-03-05T22:46:28.129Z,21.42
2023-03-05T22:48:57.039Z,17.80
2023-03-05T22:51:24.874Z,19.60
2023-03-05T22:53:52.455Z,20.40
2023-03-05T22:56:21.484Z,15.70
2023-03-05T22:58:49.668Z,17.77
2023-03-05T23:01:19.500Z,17.00
2023-03-05T23:03:47.448Z,16.67
2023-03-05T23:06:16.406Z,18.15
2023-03-05T23:08:43.908Z,26.98
2023-03-05T23:11:13.069Z,22.23
2023-03-05T23:13:41.144Z,18.52
2023-03-05T23:16:09.467Z,17.05
2023-03-05T23:18:37.064Z,17.10
2023-03-05T23:21:04.780Z,18.55
2023-03-05T23:23:33.754Z,15.32
2023-03-05T23:26:01.266Z,15.18
2023-03-05T23:28:28.771Z,15.40
2023-03-05T23:30:58.297Z,17.90
2023-03-05T23:33:26.513Z,18.25
2023-03-05T23:35:56.279Z,14.85
2023-03-05T23:38:24.921Z,16.42
2023-03-05T23:40:55.769Z,17.55
2023-03-05T23:43:25.861Z,16.75
2023-03-05T23:45:54.975Z,16.20
2023-03-05T23:48:24.026Z,15.00
2023-03-05T23:50:52.104Z,18.83
2023-03-05T23:53:22.110Z,16.15
2023-03-05T23:55:49.745Z,17.15
2023-03-05T23:58:20.278Z,15.60
